TFM - Tactical Decision Aid (Experimental) INFO Settings
ID: Runway Winds: CIG/VIS Threshold: METAR Board: Map:

KHKS - Jackson/Hawkins Fld

Updated at: 1553 UTC 12 Dec 2017
Latest TAF at: 1137 UTC 12 Dec 2017

TAF Board

Time1453Z12/16Z12/17Z12/18Z12/19Z12/20Z12/21Z12/22Z12/23Z13/00Z13/01Z13/02Z13/03Z13/04Z
TypeOBSPRVLPRVLPRVLPRVLPRVLPRVLPRVLPRVLPRVLPRVLPRVLPRVLPRVL
VIS10>6>6>6>6>6>6>6>6>6>6>6>6>6
CIG----------------------------
CoverCLRSKCSKCSKCSKCSKCSKCSKCSKCSKCSKCSKCSKCSKC
FltCatVFRVFRVFRVFRVFRVFRVFRVFRVFRVFRVFRVFRVFRVFR
WX----------------------------
WDir330340340340340340330330330330330330330330
WSpd8111111111199999999
WGst--1818181818----------------
TAF
KHKS 121137Z 1212/1312 33007KT P6SM SKC
  FM121500 34011G18KT P6SM SKC
  FM122100 33009KT P6SM SKC


METAR Board

Time12/04Z 12/05Z 12/06Z 12/07Z 12/08Z 12/09Z 12/10Z 12/11Z 12/12Z 12/13Z 12/14Z 12/15Z
VIS10 10 10 10 10 10 10 10 10 10 10 10
CIG-- -- -- -- -- -- -- -- -- -- -- --
CoverCLRCLRCLRCLRCLRCLRCLRCLRCLRCLRCLRCLR
FltCatVFRVFRVFRVFRVFRVFRVFRVFRVFRVFRVFRVFR
WX------------------------
WDir230240250270310320330330320330330330
WSpd10 9 10 8 7 4 4 5 3 4 4 8
WGst-- -- -- -- -- -- -- -- -- -- -- --
METAR
KHKS 120353Z AUTO 23010KT 10SM CLR 13/03 A3005 RMK AO2 SLP168 T01280028
KHKS 120453Z AUTO 24009KT 10SM CLR 12/03 A3003 RMK AO2 SLP163 T01170033
KHKS 120553Z AUTO 25010KT 10SM CLR 12/03 A3001 RMK AO2 SLP157 T01170033 10139 20106 402000011 58013
KHKS 120653Z AUTO 27008KT 10SM CLR 11/03 A3002 RMK AO2 SLP159 T01060028
KHKS 120753Z AUTO 31007KT 10SM CLR 11/02 A3003 RMK AO2 SLP163 T01110017
KHKS 120853Z AUTO 32004KT 10SM CLR 11/01 A3005 RMK AO2 SLP169 T01060011 53012
KHKS 120953Z AUTO 33004KT 10SM CLR 09/01 A3007 RMK AO2 SLP175 T00940006
KHKS 121053Z AUTO 33005KT 10SM CLR 09/M01 A3009 RMK AO2 SLP185 T00891011
KHKS 121153Z AUTO 32003KT 10SM CLR 08/M01 A3012 RMK AO2 SLP195 T00781011 10117 20078 53025
KHKS 121253Z 33004KT 10SM CLR 08/M01 A3016 RMK AO2 SLP209 T00781006
KHKS 121353Z 33004KT 10SM CLR 09/00 A3018 RMK AO2 SLP215 T00890000
KHKS 121453Z 33008KT 290V350 10SM CLR 10/01 A3022 RMK AO2 SLP227 T01000006 51032

TAF/METAR Board Legend

Potential Impact
  None Marginal Slight Moderate High
Visibility (sm) >5 3≤X≤5 2≤X<3 0.5≤X<2 <0.5
Ceiling (100 ft) >30 10≤X≤30 6≤X<10 2≤X<6 <2
Wind Speed (kt) <10 10≤X<20 20≤X<30 ≥30
Wind Gust (kt) <15 15≤X<25 25≤X<35 ≥35
Weather No Wx Reported VCTS -TS,-FZRA TS,FZRA +TS,+FZRA